Time;durP1;ratioP1;P1;durP2;ratioP2;P2;SDS_P1;SDS_P2;PMS_P1;PMS_P2;Temp;Humidity;BMP_temperature;BMP_pressure;BME280_temperature;BME280_humidity;BME280_pressure;Samples;Min_cycle;Max_cycle;Signal;HPM_P1;HPM_P2
2022/09/16 06:09:53;;;;;;;0.95;0.85;;;10.70;99.90;;;;;;5229138;23;20055;-73
2022/09/16 06:12:20;;;;;;;9.73;1.00;;;10.70;99.90;;;;;;4967528;28;20050;-73
2022/09/16 06:14:46;;;;;;;10.10;1.58;;;10.70;99.90;;;;;;4970874;28;20038;-73
2022/09/16 06:17:11;;;;;;;1.63;0.88;;;10.70;99.90;;;;;;4971197;28;20111;-72
2022/09/16 06:19:37;;;;;;;2.42;1.17;;;10.70;99.90;;;;;;4972391;28;20059;-71
2022/09/16 06:22:02;;;;;;;7.72;1.02;;;10.70;99.90;;;;;;4972820;28;20081;-72
2022/09/16 06:24:28;;;;;;;6.20;0.85;;;10.70;99.90;;;;;;4972316;28;20027;-73
2022/09/16 06:26:53;;;;;;;1.58;0.60;;;10.70;99.90;;;;;;4955858;28;20047;-73
2022/09/16 06:29:19;;;;;;;5.25;1.15;;;10.70;99.90;;;;;;4972765;28;20035;-72
2022/09/16 06:31:45;;;;;;;1.55;0.75;;;10.80;99.90;;;;;;4971504;28;20030;-71
2022/09/16 06:34:17;;;;;;;4.60;1.55;;;10.80;99.90;;;;;;4955156;28;20027;-75
2022/09/16 06:36:43;;;;;;;1.75;0.73;;;10.80;99.90;;;;;;4972310;28;20064;-75
2022/09/16 06:39:11;;;;;;;9.45;1.45;;;10.90;99.90;;;;;;4972328;28;20035;-73
2022/09/16 06:41:37;;;;;;;8.60;1.13;;;10.90;99.90;;;;;;4952956;28;20095;-70
2022/09/16 06:44:02;;;;;;;5.88;1.00;;;10.90;99.90;;;;;;4971462;28;20085;-72
2022/09/16 06:46:29;;;;;;;3.05;1.10;;;11.00;99.90;;;;;;4971447;28;20038;-74
2022/09/16 06:48:57;;;;;;;4.40;1.10;;;11.00;99.90;;;;;;4969438;28;20126;-75
2022/09/16 06:51:28;;;;;;;6.35;1.00;;;11.10;99.90;;;;;;4969885;28;20062;-73
2022/09/16 06:54:01;;;;;;;7.60;0.90;;;11.20;99.90;;;;;;4971952;28;20078;-73
2022/09/16 06:56:26;;;;;;;2.55;0.85;;;11.30;99.90;;;;;;4971062;28;20038;-73
2022/09/16 06:58:54;;;;;;;0.75;0.60;;;11.40;99.90;;;;;;4974141;28;20034;-76
2022/09/16 07:01:22;;;;;;;9.45;1.10;;;11.40;99.90;;;;;;4975845;28;20038;-72
2022/09/16 07:03:50;;;;;;;4.03;0.88;;;11.40;99.90;;;;;;4956604;28;20102;-75
2022/09/16 07:06:17;;;;;;;1.80;1.08;;;11.50;99.90;;;;;;4977018;28;20059;-73
2022/09/16 07:08:43;;;;;;;4.97;0.82;;;11.60;99.90;;;;;;4975715;28;20035;-74
2022/09/16 07:11:16;;;;;;;5.38;1.00;;;11.70;99.90;;;;;;4975556;28;20526;-73
2022/09/16 07:13:43;;;;;;;2.53;0.70;;;11.80;99.90;;;;;;4976249;28;20038;-70
2022/09/16 07:16:11;;;;;;;7.75;0.80;;;11.90;99.90;;;;;;4972390;28;20549;-73
2022/09/16 07:18:37;;;;;;;3.75;1.02;;;11.90;99.90;;;;;;4972584;28;20019;-74
2022/09/16 07:21:15;;;;;;;2.28;1.00;;;11.90;99.90;;;;;;4973423;28;20123;-74
2022/09/16 07:23:42;;;;;;;3.40;1.13;;;11.90;99.90;;;;;;4975178;28;20038;-73
2022/09/16 07:26:27;;;;;;;4.38;0.98;;;11.90;99.90;;;;;;4972916;28;20038;-71
2022/09/16 07:28:57;;;;;;;1.30;0.88;;;12.00;99.90;;;;;;4971952;28;20050;-73
2022/09/16 07:31:27;;;;;;;2.38;0.80;;;12.10;99.90;;;;;;4974800;28;20026;-72
2022/09/16 07:33:55;;;;;;;7.13;0.93;;;12.20;99.90;;;;;;4972220;28;20039;-71
2022/09/16 07:36:26;;;;;;;3.60;0.85;;;12.30;99.90;;;;;;4973907;28;20102;-72
2022/09/16 07:38:54;;;;;;;1.65;0.47;;;12.40;99.90;;;;;;4974690;28;20031;-74
2022/09/16 07:41:25;;;;;;;5.47;1.10;;;12.40;99.90;;;;;;4956103;28;20093;-73
2022/09/16 07:43:52;;;;;;;2.15;0.90;;;12.50;99.90;;;;;;4973471;28;20027;-73
2022/09/16 07:46:18;;;;;;;4.80;0.85;;;12.60;99.90;;;;;;4970852;28;20034;-74
2022/09/16 07:48:45;;;;;;;1.17;0.50;;;12.70;99.90;;;;;;4973504;28;20045;-73
2022/09/16 07:51:17;;;;;;;1.85;0.65;;;12.70;99.90;;;;;;4973302;28;20070;-71
2022/09/16 07:53:43;;;;;;;1.38;0.63;;;12.80;99.90;;;;;;4973773;28;20038;-73
2022/09/16 07:56:15;;;;;;;2.92;0.82;;;12.90;99.90;;;;;;4974331;28;20027;-71
2022/09/16 07:58:41;;;;;;;4.18;0.85;;;13.00;99.90;;;;;;4973632;28;20031;-70
2022/09/16 08:01:07;;;;;;;0.95;0.60;;;13.10;99.90;;;;;;4972860;28;20027;-71
2022/09/16 08:03:37;;;;;;;3.85;0.65;;;13.20;99.90;;;;;;4971571;28;20033;-74
2022/09/16 08:06:06;;;;;;;4.65;1.15;;;13.30;99.90;;;;;;4972376;28;20038;-74
2022/09/16 08:08:33;;;;;;;7.18;1.30;;;13.40;99.90;;;;;;4973055;28;20027;-70
2022/09/16 08:10:59;;;;;;;3.05;0.98;;;13.40;99.90;;;;;;4971771;28;20093;-71
2022/09/16 08:13:28;;;;;;;12.90;1.42;;;13.60;99.90;;;;;;4974034;28;20030;-72
2022/09/16 08:15:59;;;;;;;3.08;1.27;;;13.60;99.90;;;;;;4973728;28;20023;-71
2022/09/16 08:18:24;;;;;;;4.68;0.52;;;13.70;99.90;;;;;;4972152;28;20031;-70
2022/09/16 08:20:50;;;;;;;1.58;0.52;;;13.70;99.90;;;;;;4970965;28;20043;-70
2022/09/16 08:23:15;;;;;;;0.73;0.35;;;13.70;99.90;;;;;;4973003;28;20571;-71
2022/09/16 08:25:41;;;;;;;4.82;0.93;;;13.80;99.90;;;;;;4975195;28;20046;-72
2022/09/16 08:28:14;;;;;;;3.78;1.13;;;13.90;99.90;;;;;;4973990;28;20022;-75
2022/09/16 08:30:41;;;;;;;1.88;1.30;;;14.00;99.90;;;;;;4955276;28;20039;-73
2022/09/16 08:33:07;;;;;;;1.17;0.47;;;14.00;99.90;;;;;;4974112;28;20036;-76
2022/09/16 08:35:35;;;;;;;3.42;0.98;;;14.10;99.90;;;;;;4974024;28;20118;-74
2022/09/16 08:38:01;;;;;;;7.22;1.50;;;14.10;99.90;;;;;;4973883;28;20049;-73
2022/09/16 08:40:32;;;;;;;3.95;1.05;;;14.20;99.90;;;;;;4972665;28;20031;-72
2022/09/16 08:43:18;;;;;;;1.98;0.77;;;14.20;99.90;;;;;;4973992;28;20027;-72
2022/09/16 08:46:11;;;;;;;4.40;0.73;;;14.30;99.90;;;;;;4974299;28;20102;-70
2022/09/16 08:48:57;;;;;;;8.23;1.23;;;14.40;99.90;;;;;;4973194;28;20027;-73
2022/09/16 08:51:35;;;;;;;3.28;0.82;;;14.50;99.90;;;;;;4974457;28;20038;-73
2022/09/16 08:54:11;;;;;;;0.80;0.52;;;14.60;99.90;;;;;;4972466;28;20058;-70
2022/09/16 08:56:37;;;;;;;1.52;0.73;;;14.70;99.90;;;;;;4971859;28;20027;-72
2022/09/16 08:59:10;;;;;;;4.53;1.23;;;14.80;99.90;;;;;;4973500;28;20031;-75
2022/09/16 09:01:56;;;;;;;7.35;1.00;;;14.90;99.90;;;;;;4974813;28;20035;-75
2022/09/16 09:04:23;;;;;;;3.85;0.80;;;14.80;99.90;;;;;;4968868;28;20629;-73
2022/09/16 09:07:11;;;;;;;5.45;0.82;;;14.90;99.90;;;;;;4972829;28;20089;-71
2022/09/16 09:09:56;;;;;;;1.35;0.68;;;14.90;99.90;;;;;;4973451;28;20070;-73
2022/09/16 09:12:25;;;;;;;;;;;15.00;99.90;;;;;;4941942;29;20564;-72
2022/09/16 09:15:29;;;;;;;4.78;1.05;;;15.10;99.90;;;;;;4935940;29;19974;-73
2022/09/16 09:18:15;;;;;;;4.13;1.08;;;15.20;99.90;;;;;;4935076;29;20026;-73
2022/09/16 09:21:09;;;;;;;1.63;1.00;;;15.40;99.90;;;;;;4934007;29;20036;-74
2022/09/16 09:24:02;;;;;;;6.78;1.30;;;15.40;99.90;;;;;;4933580;29;20031;-74
2022/09/16 09:26:40;;;;;;;3.60;1.17;;;15.50;99.90;;;;;;4933653;29;20035;-72
2022/09/16 09:29:30;;;;;;;5.00;0.80;;;15.40;99.90;;;;;;4932255;29;20039;-71
2022/09/16 09:32:11;;;;;;;3.40;0.88;;;15.50;99.90;;;;;;4941296;29;20024;-71
2022/09/16 09:34:56;;;;;;;3.03;0.82;;;15.60;99.90;;;;;;4933922;29;20031;-71
2022/09/16 09:37:51;;;;;;;6.70;1.30;;;15.70;99.90;;;;;;4935319;29;20755;-73
2022/09/16 09:40:38;;;;;;;8.13;1.02;;;15.80;99.90;;;;;;4934267;29;20027;-72
2022/09/16 09:43:22;;;;;;;3.80;0.90;;;15.80;99.90;;;;;;4933309;29;20044;-77
2022/09/16 09:46:13;;;;;;;5.07;1.30;;;15.80;99.90;;;;;;4933961;29;20059;-70
2022/09/16 09:48:58;;;;;;;7.88;1.23;;;15.90;99.90;;;;;;4932636;29;20040;-71
2022/09/16 09:51:34;;;;;;;8.30;1.27;;;15.90;99.90;;;;;;4931935;29;20563;-75
2022/09/16 09:54:20;;;;;;;3.80;0.98;;;16.00;99.90;;;;;;4933830;29;20526;-74
2022/09/16 09:56:49;;;;;;;4.40;1.17;;;16.00;99.90;;;;;;4934860;29;20115;-71
2022/09/16 09:59:26;;;;;;;8.00;0.93;;;16.00;99.90;;;;;;4933857;29;20403;-74
2022/09/16 10:01:54;;;;;;;3.78;0.65;;;16.10;99.90;;;;;;4932377;29;20067;-71
2022/09/16 10:04:19;;;;;;;1.15;0.50;;;16.20;99.90;;;;;;4933542;29;20051;-72
2022/09/16 10:06:47;;;;;;;4.68;0.85;;;16.20;99.90;;;;;;4933328;29;20020;-76
2022/09/16 10:09:15;;;;;;;5.10;0.85;;;16.10;99.90;;;;;;4933624;29;20051;-71
2022/09/16 10:11:50;;;;;;;3.35;0.45;;;16.30;99.90;;;;;;4958943;28;20050;-72
2022/09/16 10:14:36;;;;;;;2.55;0.80;;;16.40;99.90;;;;;;4972981;28;20046;-74
2022/09/16 10:17:15;;;;;;;3.20;0.98;;;16.40;99.90;;;;;;4973322;28;20558;-71
2022/09/16 10:19:54;;;;;;;0.85;0.45;;;16.70;99.90;;;;;;4973227;28;20027;-71
2022/09/16 10:22:25;;;;;;;3.17;1.08;;;16.80;99.90;;;;;;4972610;28;20035;-73
2022/09/16 10:24:57;;;;;;;1.20;0.60;;;16.90;99.90;;;;;;4970924;28;20023;-72
2022/09/16 10:27:34;;;;;;;6.45;0.88;;;16.90;99.90;;;;;;4972489;28;20027;-77
2022/09/16 10:30:12;;;;;;;5.72;1.27;;;16.90;99.90;;;;;;4970979;28;20039;-75
2022/09/16 10:32:53;;;;;;;8.10;0.98;;;16.90;99.90;;;;;;4970453;28;20479;-72
2022/09/16 10:35:25;;;;;;;8.10;0.95;;;17.00;99.90;;;;;;4972162;28;20038;-74
2022/09/16 10:38:00;;;;;;;2.00;0.98;;;17.10;99.90;;;;;;4973222;28;20059;-77
2022/09/16 10:40:27;;;;;;;10.23;1.50;;;17.30;99.90;;;;;;4955419;28;20031;-75
2022/09/16 10:42:58;;;;;;;0.68;0.52;;;17.30;99.90;;;;;;4972796;28;20027;-73
2022/09/16 10:45:27;;;;;;;1.02;0.45;;;17.30;99.90;;;;;;4955936;28;20087;-79
2022/09/16 10:48:01;;;;;;;7.93;0.95;;;17.20;99.90;;;;;;4972823;28;20031;-73
2022/09/16 10:50:27;;;;;;;10.23;0.90;;;17.00;99.90;;;;;;4972581;28;20042;-73
2022/09/16 10:52:53;;;;;;;1.05;0.47;;;16.90;99.90;;;;;;4973134;28;20278;-75
2022/09/16 10:55:36;;;;;;;1.15;0.70;;;16.90;99.90;;;;;;4971987;28;20035;-73
2022/09/16 10:58:15;;;;;;;5.55;1.00;;;17.20;99.90;;;;;;4963930;28;20039;-78
2022/09/16 11:01:07;;;;;;;1.98;0.85;;;17.20;99.90;;;;;;4958373;28;20035;-78
2022/09/16 11:03:54;;;;;;;15.25;0.98;;;17.30;99.90;;;;;;4969999;28;20031;-72
2022/09/16 11:06:39;;;;;;;3.80;0.38;;;17.20;99.90;;;;;;4969610;28;20039;-72
2022/09/16 11:09:31;;;;;;;4.57;0.55;;;17.40;99.90;;;;;;4952169;28;20475;-71
2022/09/16 11:12:24;;;;;;;1.80;0.52;;;17.40;99.90;;;;;;4969428;28;20059;-74
2022/09/16 11:15:02;;;;;;;1.60;0.50;;;17.60;99.90;;;;;;4953825;28;20031;-73
2022/09/16 11:18:04;;;;;;;4.97;0.77;;;17.80;99.90;;;;;;4970678;28;20035;-74
2022/09/16 11:20:56;;;;;;;5.05;0.50;;;17.70;99.90;;;;;;4960399;28;20039;-76
2022/09/16 11:23:37;;;;;;;2.55;0.43;;;17.30;99.90;;;;;;4949917;28;20054;-72
2022/09/16 11:26:09;;;;;;;1.30;0.35;;;16.90;99.90;;;;;;4971382;28;20035;-76
2022/09/16 11:28:55;;;;;;;3.30;1.05;;;16.50;99.90;;;;;;4968815;28;20050;-75
2022/09/16 11:31:40;;;;;;;13.88;0.82;;;16.00;99.90;;;;;;4970825;28;20379;-76
2022/09/16 11:34:34;;;;;;;4.07;0.47;;;15.30;99.90;;;;;;4967923;28;20039;-69
2022/09/16 11:37:12;;;;;;;1.45;0.52;;;14.60;99.90;;;;;;4970497;28;20034;-74
2022/09/16 11:39:52;;;;;;;5.63;0.45;;;14.10;99.90;;;;;;4969396;28;20034;-73
2022/09/16 11:42:34;;;;;;;1.98;0.63;;;13.90;99.90;;;;;;4971421;28;20085;-70
2022/09/16 11:45:34;;;;;;;1.85;0.63;;;13.80;99.90;;;;;;4974096;28;20038;-73
2022/09/16 11:48:18;;;;;;;2.30;0.60;;;13.80;99.90;;;;;;4974816;28;20066;-73
2022/09/16 11:51:11;;;;;;;6.53;1.30;;;14.20;99.90;;;;;;4974695;28;20403;-71
2022/09/16 11:54:13;;;;;;;6.75;0.63;;;14.60;99.90;;;;;;4974922;28;20031;-74
2022/09/16 11:56:49;;;;;;;1.20;0.50;;;14.90;99.90;;;;;;4974028;28;20523;-72
2022/09/16 11:59:14;;;;;;;2.30;0.65;;;15.30;99.90;;;;;;4974828;28;20142;-71
2022/09/16 12:01:47;;;;;;;7.25;1.08;;;15.40;99.90;;;;;;4975854;28;20471;-71
2022/09/16 12:04:52;;;;;;;8.07;1.10;;;15.60;99.90;;;;;;4974755;28;20037;-71
2022/09/16 12:07:45;;;;;;;0.98;0.65;;;15.80;99.90;;;;;;4959405;28;20040;-72
2022/09/16 12:10:19;;;;;;;2.60;0.95;;;16.20;99.90;;;;;;4963973;28;20046;-71
2022/09/16 12:13:14;;;;;;;4.57;0.93;;;16.60;99.90;;;;;;4975032;28;20034;-73
2022/09/16 12:15:42;;;;;;;;;;;16.90;99.90;;;;;;4975540;28;20027;-71
2022/09/16 12:18:14;;;;;;;2.92;0.88;;;17.20;99.90;;;;;;4970111;28;20278;-75
2022/09/16 12:20:46;;;;;;;3.33;0.85;;;17.40;99.90;;;;;;4975350;28;20027;-71
2022/09/16 12:23:19;;;;;;;2.17;0.85;;;17.50;99.90;;;;;;4974320;28;20114;-77
2022/09/16 12:26:08;;;;;;;4.60;0.90;;;17.50;99.90;;;;;;4974625;28;20024;-73
2022/09/16 12:29:04;;;;;;;4.78;0.98;;;17.20;99.90;;;;;;4974864;28;20023;-75
2022/09/16 12:31:36;;;;;;;5.95;1.10;;;17.00;99.90;;;;;;4959710;28;20051;-73
2022/09/16 12:34:08;;;;;;;10.73;1.60;;;16.90;99.90;;;;;;4957469;28;20027;-75
2022/09/16 12:36:37;;;;;;;7.13;0.93;;;17.00;99.90;;;;;;4973717;28;20039;-72
2022/09/16 12:39:02;;;;;;;1.50;0.68;;;17.00;99.90;;;;;;4970830;28;20118;-77
2022/09/16 12:41:43;;;;;;;3.35;1.17;;;17.10;99.90;;;;;;4974069;28;20065;-79
2022/09/16 12:44:26;;;;;;;3.38;1.10;;;17.00;99.90;;;;;;4968535;28;20102;-75
2022/09/16 12:47:05;;;;;;;2.28;0.80;;;16.80;99.90;;;;;;4974320;28;20028;-75
2022/09/16 12:49:49;;;;;;;4.32;0.93;;;16.40;99.90;;;;;;4972400;28;20047;-75
2022/09/16 12:52:23;;;;;;;11.63;1.42;;;16.10;99.90;;;;;;4973833;28;20027;-73
2022/09/16 12:55:22;;;;;;;7.13;1.20;;;15.70;99.90;;;;;;4971890;28;20039;-70
2022/09/16 12:57:54;;;;;;;4.15;0.77;;;15.30;99.90;;;;;;4971759;28;20027;-76
2022/09/16 13:00:28;;;;;;;3.28;1.17;;;14.90;99.90;;;;;;4973785;28;20072;-72
2022/09/16 13:03:02;;;;;;;4.45;1.15;;;14.70;99.90;;;;;;4953109;28;20031;-75
2022/09/16 13:05:32;;;;;;;4.20;0.98;;;14.60;99.90;;;;;;4971177;28;20069;-75
2022/09/16 13:08:02;;;;;;;3.92;1.30;;;14.40;99.90;;;;;;4972913;28;20019;-71
2022/09/16 13:10:36;;;;;;;1.58;1.13;;;14.30;99.90;;;;;;4950517;29;20118;-74
2022/09/16 13:13:04;;;;;;;3.88;1.63;;;14.30;99.90;;;;;;4949138;29;20031;-73
2022/09/16 13:15:38;;;;;;;1.27;0.88;;;14.20;99.90;;;;;;4954340;29;20489;-72
2022/09/16 13:18:22;;;;;;;4.57;1.17;;;14.20;99.90;;;;;;4952881;29;20020;-75
2022/09/16 13:21:00;;;;;;;4.57;1.40;;;14.30;99.90;;;;;;4953530;29;20031;-74
2022/09/16 13:23:33;;;;;;;3.88;1.58;;;14.30;99.90;;;;;;4950756;29;20030;-72
2022/09/16 13:26:10;;;;;;;7.97;1.80;;;14.30;99.90;;;;;;4953469;29;20051;-72
2022/09/16 13:28:39;;;;;;;10.52;1.85;;;14.30;99.90;;;;;;4953320;29;20031;-72
2022/09/16 13:31:15;;;;;;;10.02;1.73;;;14.30;99.90;;;;;;4954677;29;20027;-74
2022/09/16 13:34:02;;;;;;;9.63;2.15;;;14.30;99.90;;;;;;4952580;29;20030;-72
2022/09/16 13:36:32;;;;;;;14.35;2.25;;;14.30;99.90;;;;;;4954567;29;20024;-74
2022/09/16 13:39:05;;;;;;;7.80;1.77;;;14.20;99.90;;;;;;4968740;28;20551;-74
2022/09/16 13:41:36;;;;;;;6.35;2.13;;;14.20;99.90;;;;;;4953979;29;20086;-75
2022/09/16 13:44:38;;;;;;;9.10;1.67;;;14.20;99.90;;;;;;4950112;29;20062;-75
2022/09/16 13:47:11;;;;;;;14.63;2.38;;;14.10;99.90;;;;;;4940272;29;20046;-72
2022/09/16 13:49:48;;;;;;;12.10;2.08;;;14.00;99.90;;;;;;4945774;29;20054;-74
2022/09/16 13:52:19;;;;;;;9.68;1.98;;;13.90;99.90;;;;;;4949244;29;20027;-72
2022/09/16 13:54:53;;;;;;;6.60;1.75;;;13.90;99.90;;;;;;4950743;29;20070;-79
2022/09/16 13:57:52;;;;;;;3.67;1.48;;;13.80;99.90;;;;;;4950595;29;20031;-71
2022/09/16 14:00:28;;;;;;;5.43;1.48;;;13.80;99.90;;;;;;4950830;29;20063;-73
2022/09/16 14:03:05;;;;;;;3.28;1.02;;;13.60;99.90;;;;;;4952354;29;20037;-73
2022/09/16 14:06:03;;;;;;;7.63;1.88;;;13.60;99.90;;;;;;4951572;28;20665;-72
2022/09/16 14:08:56;;;;;;;4.47;1.20;;;13.50;99.90;;;;;;4953284;28;20095;-72
2022/09/16 14:11:33;;;;;;;1.80;0.98;;;13.50;99.90;;;;;;4962993;28;20039;-72
2022/09/16 14:14:17;;;;;;;7.05;1.27;;;13.40;99.90;;;;;;4967021;28;20042;-72
2022/09/16 14:16:44;;;;;;;4.47;1.17;;;13.30;99.90;;;;;;4952678;28;20082;-78
2022/09/16 14:19:31;;;;;;;15.68;2.20;;;13.30;99.90;;;;;;4969601;28;20051;-70
2022/09/16 14:22:18;;;;;;;6.00;1.58;;;13.30;99.90;;;;;;4972157;28;20085;-71
2022/09/16 14:24:45;;;;;;;7.93;1.45;;;13.20;99.90;;;;;;4972032;28;20411;-74
2022/09/16 14:27:25;;;;;;;9.32;1.65;;;13.20;99.90;;;;;;4973211;28;20114;-73
2022/09/16 14:29:59;;;;;;;11.70;1.60;;;13.10;99.90;;;;;;4969413;28;20039;-77
2022/09/16 14:32:31;;;;;;;6.10;1.75;;;13.10;99.90;;;;;;4954078;28;20411;-73
2022/09/16 14:35:01;;;;;;;9.18;1.17;;;13.00;99.90;;;;;;4971173;28;20027;-73
2022/09/16 14:37:29;;;;;;;2.20;1.17;;;13.00;99.90;;;;;;4973636;28;20041;-73
2022/09/16 14:40:06;;;;;;;11.70;1.63;;;12.90;99.90;;;;;;4967830;28;20487;-78
2022/09/16 14:42:32;;;;;;;10.10;1.98;;;12.80;99.90;;;;;;4953798;28;20045;-75
2022/09/16 14:44:59;;;;;;;2.75;0.80;;;12.60;99.90;;;;;;4970814;28;20019;-72
2022/09/16 14:47:34;;;;;;;5.20;1.27;;;12.50;99.90;;;;;;4969892;28;20043;-73
2022/09/16 14:50:05;;;;;;;7.20;1.00;;;12.50;99.90;;;;;;4968596;28;20041;-72
2022/09/16 14:52:33;;;;;;;1.60;0.93;;;12.40;99.90;;;;;;4968374;28;20031;-73
2022/09/16 14:54:58;;;;;;;2.83;0.93;;;12.30;99.90;;;;;;4970671;28;20042;-74
2022/09/16 14:57:26;;;;;;;4.72;1.42;;;12.20;99.90;;;;;;4966751;28;20035;-72
2022/09/16 14:59:55;;;;;;;5.22;1.02;;;12.20;99.90;;;;;;4949987;28;20034;-74
2022/09/16 15:02:43;;;;;;;4.05;0.77;;;12.10;99.90;;;;;;4969267;28;20031;-75
2022/09/16 15:05:21;;;;;;;5.35;1.35;;;12.10;99.90;;;;;;4963023;28;20039;-75
2022/09/16 15:07:47;;;;;;;5.70;1.33;;;12.10;99.90;;;;;;4970922;28;20111;-72
2022/09/16 15:10:28;;;;;;;8.50;1.15;;;12.10;99.90;;;;;;4978672;28;20126;-71
2022/09/16 15:13:18;;;;;;;3.92;1.00;;;12.10;99.90;;;;;;4950855;28;20530;-73
2022/09/16 15:16:01;;;;;;;3.10;0.60;;;12.10;99.90;;;;;;4973024;28;20027;-71
2022/09/16 15:18:31;;;;;;;5.68;0.57;;;12.10;99.90;;;;;;4976170;28;20023;-74
2022/09/16 15:21:06;;;;;;;4.53;1.10;;;12.10;99.90;;;;;;4957887;28;20031;-75
2022/09/16 15:23:33;;;;;;;3.92;0.85;;;12.00;99.90;;;;;;4975566;28;20027;-76
2022/09/16 15:26:23;;;;;;;13.98;1.17;;;12.00;99.90;;;;;;4975689;28;20032;-74
2022/09/16 15:28:59;;;;;;;18.08;1.58;;;12.10;99.90;;;;;;4975914;28;20031;-75
2022/09/16 15:31:29;;;;;;;4.47;0.93;;;12.00;99.90;;;;;;4970019;28;20034;-76
2022/09/16 15:33:55;;;;;;;4.40;0.80;;;12.00;99.90;;;;;;4966848;28;20407;-76
2022/09/16 15:36:40;;;;;;;18.58;1.67;;;12.00;99.90;;;;;;4973907;28;20046;-74
2022/09/16 15:39:22;;;;;;;4.35;1.42;;;11.90;99.90;;;;;;4975036;28;20083;-71
2022/09/16 15:41:48;;;;;;;5.05;1.05;;;11.90;99.90;;;;;;4975882;28;20027;-71
2022/09/16 15:44:21;;;;;;;6.18;1.33;;;11.90;99.90;;;;;;4974916;28;20026;-68
2022/09/16 15:46:47;;;;;;;7.35;0.75;;;11.90;99.90;;;;;;4975097;28;20010;-70
2022/09/16 15:49:18;;;;;;;6.85;1.50;;;11.90;99.90;;;;;;4975076;28;20123;-70
2022/09/16 15:51:46;;;;;;;2.97;1.65;;;12.00;99.90;;;;;;4975572;28;20023;-74
2022/09/16 15:54:30;;;;;;;4.18;1.52;;;11.90;99.90;;;;;;4975162;28;20046;-72
2022/09/16 15:57:19;;;;;;;4.63;1.83;;;11.90;99.90;;;;;;4976659;28;20098;-73
2022/09/16 16:00:09;;;;;;;7.50;1.95;;;11.90;99.90;;;;;;4975338;28;20478;-71
2022/09/16 16:02:35;;;;;;;9.00;1.45;;;11.90;99.90;;;;;;4975908;28;20038;-73
2022/09/16 16:05:17;;;;;;;1.50;0.65;;;11.80;99.90;;;;;;4975763;28;20023;-72
2022/09/16 16:07:45;;;;;;;2.63;1.10;;;11.90;99.90;;;;;;4974463;28;20035;-74
2022/09/16 16:10:19;;;;;;;11.07;1.45;;;11.80;99.90;;;;;;4974822;28;20035;-75
2022/09/16 16:12:46;;;;;;;4.93;1.33;;;11.80;99.90;;;;;;4975170;28;20026;-75
2022/09/16 16:15:27;;;;;;;3.25;1.08;;;11.80;99.90;;;;;;4974751;28;20055;-70
2022/09/16 16:17:56;;;;;;;2.80;0.93;;;11.80;99.90;;;;;;4975908;28;20182;-74
2022/09/16 16:20:22;;;;;;;7.32;1.20;;;11.80;99.90;;;;;;4958157;28;20420;-72
2022/09/16 16:22:48;;;;;;;2.83;0.75;;;11.80;99.90;;;;;;4976142;28;20034;-71
2022/09/16 16:25:14;;;;;;;2.40;0.85;;;11.80;99.90;;;;;;4975275;28;20688;-70
2022/09/16 16:27:40;;;;;;;4.88;1.20;;;11.80;99.90;;;;;;4974544;28;20035;-71
2022/09/16 16:30:07;;;;;;;6.43;1.23;;;11.80;99.90;;;;;;4974589;28;20043;-75
2022/09/16 16:32:33;;;;;;;7.97;1.25;;;11.80;99.90;;;;;;4974548;28;20027;-72
2022/09/16 16:35:00;;;;;;;11.75;1.58;;;11.80;99.90;;;;;;4974341;28;20027;-73
2022/09/16 16:37:26;;;;;;;3.70;1.13;;;11.80;99.90;;;;;;4975015;28;20026;-71
2022/09/16 16:39:52;;;;;;;5.25;1.33;;;11.80;99.90;;;;;;4975152;28;20027;-71
2022/09/16 16:42:18;;;;;;;2.53;1.17;;;11.80;99.90;;;;;;4974136;28;20523;-72
2022/09/16 16:44:44;;;;;;;5.25;1.65;;;11.80;99.90;;;;;;4974842;28;20027;-70
2022/09/16 16:47:10;;;;;;;7.47;2.13;;;11.80;99.90;;;;;;4974533;28;20082;-71
2022/09/16 16:49:36;;;;;;;5.97;1.15;;;11.80;99.90;;;;;;4974134;28;20051;-73
2022/09/16 16:52:04;;;;;;;3.65;1.48;;;11.80;99.90;;;;;;4974220;28;20028;-73
2022/09/16 16:54:30;;;;;;;6.35;0.88;;;11.80;99.90;;;;;;4973995;28;20039;-71
2022/09/16 16:56:57;;;;;;;3.15;1.52;;;11.80;99.90;;;;;;4973999;28;20059;-73
2022/09/16 16:59:25;;;;;;;2.45;1.00;;;11.80;99.90;;;;;;4972208;28;20030;-75
2022/09/16 17:01:53;;;;;;;7.45;1.10;;;;;;;;;;4968770;28;20093;-75
2022/09/16 17:04:20;;;;;;;1.30;0.73;;;11.80;99.90;;;;;;4971948;28;20525;-76
2022/09/16 17:06:46;;;;;;;2.28;1.25;;;11.70;99.90;;;;;;4956031;28;20034;-72
2022/09/16 17:09:13;;;;;;;4.25;1.15;;;11.80;99.90;;;;;;4972546;28;20100;-72
2022/09/16 17:11:51;;;;;;;3.55;1.15;;;11.70;99.90;;;;;;4973976;28;20067;-70
2022/09/16 17:14:17;;;;;;;2.65;0.90;;;11.70;99.90;;;;;;4973831;28;20027;-72
2022/09/16 17:16:45;;;;;;;4.20;1.25;;;11.70;99.90;;;;;;4973904;28;20514;-70
2022/09/16 17:19:11;;;;;;;0.93;0.50;;;11.70;99.90;;;;;;4973785;28;20091;-72
2022/09/16 17:21:38;;;;;;;2.10;0.68;;;11.60;99.90;;;;;;4974420;28;20486;-71
2022/09/16 17:24:04;;;;;;;6.70;0.80;;;11.60;99.90;;;;;;4969391;28;20926;-73
2022/09/16 17:26:30;;;;;;;2.55;0.60;;;11.60;99.90;;;;;;4972152;28;20444;-74
2022/09/16 17:28:56;;;;;;;2.13;0.60;;;11.60;99.90;;;;;;4971228;28;20047;-71
2022/09/16 17:31:28;;;;;;;4.05;1.02;;;11.60;99.90;;;;;;4973560;28;20015;-72
2022/09/16 17:33:56;;;;;;;3.22;1.08;;;11.60;99.90;;;;;;4971044;28;20026;-70
2022/09/16 17:36:23;;;;;;;2.40;1.20;;;11.60;99.90;;;;;;4972585;28;20176;-71
2022/09/16 17:38:59;;;;;;;3.90;1.10;;;11.60;99.90;;;;;;4955537;28;20119;-70
2022/09/16 17:41:26;;;;;;;12.27;1.10;;;11.50;99.90;;;;;;4973293;28;20032;-73
2022/09/16 17:43:53;;;;;;;3.72;1.35;;;11.50;99.90;;;;;;4973166;28;20098;-70
2022/09/16 17:46:19;;;;;;;4.13;0.88;;;11.50;99.90;;;;;;4953572;28;20034;-74
2022/09/16 17:48:46;;;;;;;11.50;1.08;;;11.60;99.90;;;;;;4971582;28;20566;-70
2022/09/16 17:51:12;;;;;;;4.15;1.30;;;11.50;99.90;;;;;;4973121;28;20023;-74
2022/09/16 17:53:38;;;;;;;0.40;0.40;;;11.50;99.90;;;;;;4972234;28;20103;-71
2022/09/16 17:56:06;;;;;;;0.80;0.50;;;11.50;99.90;;;;;;4972897;28;20031;-69
2022/09/16 17:58:32;;;;;;;1.70;0.93;;;11.40;99.90;;;;;;4972301;28;20026;-70
2022/09/16 18:01:09;;;;;;;3.88;0.75;;;11.40;99.90;;;;;;4973468;28;20037;-70
2022/09/16 18:03:35;;;;;;;23.98;1.83;;;11.40;99.90;;;;;;4973030;28;20169;-73
2022/09/16 18:06:07;;;;;;;4.03;0.88;;;11.40;99.90;;;;;;4973737;28;20027;-73
2022/09/16 18:08:33;;;;;;;1.45;0.57;;;11.40;99.90;;;;;;4973239;28;20022;-71
2022/09/16 18:10:59;;;;;;;4.53;0.77;;;11.40;99.90;;;;;;4973333;28;20069;-70
2022/09/16 18:13:24;;;;;;;3.42;1.38;;;11.40;99.90;;;;;;4972120;28;20537;-71
2022/09/16 18:15:50;;;;;;;2.78;1.05;;;11.30;99.90;;;;;;4972228;28;20039;-67
2022/09/16 18:18:19;;;;;;;1.10;0.75;;;11.40;99.90;;;;;;4971199;28;20042;-71
2022/09/16 18:20:50;;;;;;;1.60;0.93;;;11.40;99.90;;;;;;4973488;28;20031;-70
2022/09/16 18:23:16;;;;;;;3.65;1.45;;;11.40;99.90;;;;;;4972706;28;20035;-74
2022/09/16 18:25:41;;;;;;;5.85;1.17;;;11.40;99.90;;;;;;4971990;28;20028;-72
2022/09/16 18:28:07;;;;;;;2.67;1.48;;;11.40;99.90;;;;;;4972280;28;20018;-72
2022/09/16 18:30:32;;;;;;;4.28;1.45;;;11.40;99.90;;;;;;4971948;28;20058;-73
2022/09/16 18:32:58;;;;;;;10.23;2.10;;;11.40;99.90;;;;;;4972993;28;20079;-71
2022/09/16 18:35:24;;;;;;;8.15;1.70;;;11.40;99.90;;;;;;4972803;28;20019;-73
2022/09/16 18:37:49;;;;;;;8.05;1.25;;;11.40;99.90;;;;;;4972784;28;20042;-70
2022/09/16 18:40:15;;;;;;;5.88;1.17;;;11.40;99.90;;;;;;4953822;28;20041;-69
2022/09/16 18:42:41;;;;;;;2.60;1.15;;;11.40;99.90;;;;;;4972860;28;20494;-69
2022/09/16 18:45:07;;;;;;;1.95;0.77;;;11.50;99.90;;;;;;4970134;28;20031;-71
2022/09/16 18:47:32;;;;;;;8.65;1.30;;;11.50;99.90;;;;;;4971161;28;20106;-69
2022/09/16 18:49:58;;;;;;;2.50;1.38;;;11.50;99.90;;;;;;4970731;28;20032;-70
2022/09/16 18:52:23;;;;;;;4.55;1.58;;;11.50;99.90;;;;;;4974159;28;20173;-73
2022/09/16 18:54:49;;;;;;;10.93;1.50;;;11.50;99.90;;;;;;4976185;28;20043;-69
2022/09/16 18:57:16;;;;;;;8.32;1.90;;;11.50;99.90;;;;;;4976243;28;20037;-70
2022/09/16 18:59:42;;;;;;;14.18;1.73;;;11.50;99.90;;;;;;4976303;28;20053;-71
2022/09/16 19:02:11;;;;;;;2.80;1.38;;;11.50;99.90;;;;;;4976827;28;20028;-73
2022/09/16 19:04:42;;;;;;;5.97;1.35;;;11.50;99.90;;;;;;4971688;28;20023;-71
2022/09/16 19:07:11;;;;;;;9.80;2.35;;;11.50;99.90;;;;;;4976558;28;20084;-70
2022/09/16 19:09:38;;;;;;;2.65;1.55;;;11.50;99.90;;;;;;4976019;28;20047;-71
2022/09/16 19:12:05;;;;;;;7.47;1.27;;;11.50;99.90;;;;;;4975326;28;20091;-71
2022/09/16 19:14:31;;;;;;;6.75;2.15;;;11.50;99.90;;;;;;4976000;28;20020;-70
2022/09/16 19:16:57;;;;;;;4.72;1.50;;;11.50;99.90;;;;;;4972493;28;20030;-71
2022/09/16 19:19:22;;;;;;;5.07;1.52;;;11.50;99.90;;;;;;4975298;28;20043;-70
2022/09/16 19:21:48;;;;;;;6.13;1.48;;;11.50;99.90;;;;;;4976237;28;20059;-71
2022/09/16 19:24:21;;;;;;;20.08;2.38;;;11.50;99.90;;;;;;4975408;28;20077;-70
2022/09/16 19:26:49;;;;;;;4.40;2.10;;;11.50;99.90;;;;;;4976405;28;20028;-69